Time;durP1;ratioP1;P1;durP2;ratioP2;P2;SDS_P1;SDS_P2;PMS_P1;PMS_P2;Temp;Humidity;BMP_temperature;BMP_pressure;BME280_temperature;BME280_humidity;BME280_pressure;Samples;Min_cycle;Max_cycle;Signal;HPM_P1;HPM_P2
2023/09/21 00:00:14;;;;;;;3.72;3.30;;;;;;;14.41;100.00;95153.47;1042754;28;20033;-74
2023/09/21 00:00:45;;;;;;;6.05;4.00;;;;;;;14.31;100.00;95147.34;1038673;28;20035;-74
2023/09/21 00:01:15;;;;;;;4.72;3.75;;;;;;;14.31;100.00;95149.97;1034777;28;20026;-74
2023/09/21 00:01:48;;;;;;;6.45;4.00;;;;;;;14.33;100.00;95152.31;1037156;28;20489;-74
2023/09/21 00:02:18;;;;;;;4.43;3.65;;;;;;;14.32;100.00;95156.06;1038036;28;20018;-73
2023/09/21 00:02:50;;;;;;;6.18;3.55;;;;;;;14.15;100.00;95122.38;1039163;28;20100;-74
2023/09/21 00:03:21;;;;;;;5.55;3.25;;;;;;;14.28;100.00;95155.84;1050869;28;20582;-74
2023/09/21 00:03:51;;;;;;;4.07;3.40;;;;;;;14.20;100.00;95145.25;1050670;28;20036;-74
2023/09/21 00:04:22;;;;;;;6.68;3.53;;;;;;;14.19;100.00;95141.84;1042444;28;20579;-74
2023/09/21 00:04:52;;;;;;;5.93;3.90;;;;;;;14.26;100.00;95147.47;1030652;28;20041;-75
2023/09/21 00:05:24;;;;;;;3.83;3.42;;;;;;;14.21;100.00;95150.22;1026527;28;20142;-74
2023/09/21 00:05:55;;;;;;;5.03;3.70;;;;;;;14.16;100.00;95142.44;1030499;28;20105;-75
2023/09/21 00:06:26;;;;;;;5.07;3.40;;;;;;;14.12;100.00;95138.84;1038666;28;20036;-74
2023/09/21 00:06:56;;;;;;;8.23;3.65;;;;;;;14.18;100.00;95140.25;1038544;28;20109;-74
2023/09/21 00:07:27;;;;;;;10.65;3.83;;;;;;;14.17;100.00;95145.84;1037159;28;20558;-76
2023/09/21 00:07:57;;;;;;;7.68;3.80;;;;;;;14.19;100.00;95148.97;1032415;28;20034;-74
2023/09/21 00:08:28;;;;;;;16.10;4.22;;;;;;;14.17;100.00;95143.97;1030521;28;20045;-74
2023/09/21 00:09:00;;;;;;;4.10;3.53;;;;;;;14.14;100.00;95149.84;1038694;28;20044;-74
2023/09/21 00:09:32;;;;;;;8.63;3.80;;;;;;;14.12;100.00;95152.03;1042951;28;20100;-73
2023/09/21 00:10:05;;;;;;;8.77;3.90;;;;;;;14.09;100.00;95150.75;1046502;28;20166;-74
2023/09/21 00:10:36;;;;;;;7.68;3.65;;;;;;;14.11;100.00;95145.16;1036995;28;20049;-75
2023/09/21 00:11:07;;;;;;;7.53;3.65;;;;;;;14.09;100.00;95144.72;1035176;28;20401;-75
2023/09/21 00:11:40;;;;;;;6.18;3.55;;;;;;;14.10;100.00;95144.41;1035289;28;20052;-73
2023/09/21 00:12:10;;;;;;;4.25;3.67;;;;;;;14.09;100.00;95148.13;1034992;28;20037;-71
2023/09/21 00:12:41;;;;;;;10.95;3.83;;;;;;;14.01;100.00;95130.34;1038554;28;20021;-74
2023/09/21 00:13:12;;;;;;;4.78;3.70;;;;;;;14.07;100.00;95142.34;1044885;28;20122;-76
2023/09/21 00:13:43;;;;;;;5.15;3.90;;;;;;;14.07;100.00;95145.00;1042684;28;20029;-73
2023/09/21 00:14:13;;;;;;;6.35;3.60;;;;;;;14.04;100.00;95139.53;1043110;28;20064;-75
2023/09/21 00:14:44;;;;;;;4.93;3.30;;;;;;;14.01;100.00;95137.50;1046886;28;20028;-74
2023/09/21 00:15:17;;;;;;;4.88;3.15;;;;;;;13.97;100.00;95139.94;1046897;28;20040;-74
2023/09/21 00:15:49;;;;;;;6.97;3.10;;;;;;;14.01;100.00;95137.50;1047005;28;20456;-76
2023/09/21 00:16:24;;;;;;;5.38;3.40;;;;;;;13.94;100.00;95134.50;1038536;28;20091;-74
2023/09/21 00:16:55;;;;;;;5.53;3.60;;;;;;;13.96;100.00;95142.91;1038787;28;20033;-74
2023/09/21 00:17:27;;;;;;;4.97;3.90;;;;;;;13.93;100.00;95144.25;1038603;28;20456;-74
2023/09/21 00:17:58;;;;;;;5.43;3.42;;;;;;;13.88;100.00;95137.25;1042598;28;20126;-74
2023/09/21 00:18:29;;;;;;;8.05;3.60;;;;;;;13.88;100.00;95136.44;1034473;28;20084;-74
2023/09/21 00:19:06;;;;;;;6.07;3.60;;;;;;;13.88;100.00;95145.16;1035468;28;20163;-74
2023/09/21 00:19:37;;;;;;;8.18;3.95;;;;;;;13.88;100.00;95145.16;1038380;28;20037;-73
2023/09/21 00:20:12;;;;;;;6.15;3.80;;;;;;;13.89;100.00;95144.09;1035616;28;20065;-74
2023/09/21 00:20:48;;;;;;;8.57;5.00;;;;;;;13.86;100.00;95149.94;1032860;28;20102;-73
2023/09/21 00:21:19;;;;;;;5.50;4.18;;;;;;;13.86;100.00;95142.03;1035798;28;20032;-73
2023/09/21 00:21:49;;;;;;;4.50;3.58;;;;;;;13.85;100.00;95140.50;1038601;28;20029;-72
2023/09/21 00:22:20;;;;;;;4.68;3.58;;;;;;;13.83;100.00;95139.22;1034705;28;20022;-73
2023/09/21 00:22:53;;;;;;;4.60;3.70;;;;;;;13.79;100.00;95133.75;1027570;28;20030;-72
2023/09/21 00:23:24;;;;;;;9.38;4.30;;;;;;;13.83;100.00;95145.25;1041511;28;20068;-74
2023/09/21 00:23:55;;;;;;;6.30;3.65;;;;;;;13.83;100.00;95137.34;1038676;28;20037;-74
2023/09/21 00:24:25;;;;;;;5.15;3.55;;;;;;;13.82;100.00;95135.81;1039027;28;20033;-74
2023/09/21 00:24:56;;;;;;;5.47;3.30;;;;;;;13.78;100.00;95126.13;1040072;28;20029;-74
2023/09/21 00:25:28;;;;;;;4.70;4.07;;;;;;;13.77;100.00;95121.94;1026480;28;20035;-73
2023/09/21 00:25:58;;;;;;;6.50;4.00;;;;;;;13.77;100.00;95128.00;1030501;28;20052;-75
2023/09/21 00:26:29;;;;;;;5.22;3.92;;;;;;;13.83;100.00;95129.44;1039096;28;20057;-74
2023/09/21 00:26:59;;;;;;;7.00;4.80;;;;;;;13.78;100.00;95123.50;1046893;28;20024;-73
2023/09/21 00:27:30;;;;;;;5.15;4.50;;;;;;;13.76;100.00;95112.47;1046223;28;20020;-74
2023/09/21 00:28:12;;;;;;;6.90;4.75;;;;;;;13.87;100.00;95132.25;1038621;28;20687;-73
2023/09/21 00:28:43;;;;;;;9.27;4.82;;;;;;;13.84;100.00;95130.22;1034570;28;20051;-74
2023/09/21 00:29:14;;;;;;;6.70;4.30;;;;;;;13.79;100.00;95117.16;1040304;28;20032;-74
2023/09/21 00:29:49;;;;;;;12.50;5.00;;;;;;;13.79;100.00;95120.56;1046659;28;20028;-73
2023/09/21 00:30:19;;;;;;;6.28;5.00;;;;;;;13.82;100.00;95130.53;1038808;28;20022;-75
2023/09/21 00:30:54;;;;;;;5.70;4.38;;;;;;;13.81;100.00;95125.53;1041964;28;20024;-72
2023/09/21 00:31:25;;;;;;;5.13;4.32;;;;;;;13.81;100.00;95125.53;1030419;28;20081;-74
2023/09/21 00:31:58;;;;;;;4.95;4.03;;;;;;;13.79;100.00;95125.84;1036380;28;20132;-74
2023/09/21 00:32:28;;;;;;;5.07;3.92;;;;;;;13.78;100.00;95126.94;1042692;28;20119;-73
2023/09/21 00:32:59;;;;;;;10.57;5.13;;;;;;;13.75;100.00;95124.88;1034792;28;20100;-74
2023/09/21 00:33:32;;;;;;;5.97;4.55;;;;;;;13.74;100.00;95123.31;1036860;28;20076;-74
2023/09/21 00:34:05;;;;;;;6.55;4.90;;;;;;;13.74;100.00;95120.66;1034460;28;20041;-74
2023/09/21 00:34:35;;;;;;;7.40;4.35;;;;;;;13.74;100.00;95123.31;1035369;28;20036;-74
2023/09/21 00:35:09;;;;;;;8.57;4.95;;;;;;;13.77;100.00;95125.34;1035281;28;20033;-74
2023/09/21 00:35:40;;;;;;;9.15;4.85;;;;;;;13.72;100.00;95122.84;1034555;28;20036;-74
2023/09/21 00:36:13;;;;;;;8.02;4.47;;;;;;;13.77;100.00;95129.84;1042578;28;20447;-73
2023/09/21 00:36:44;;;;;;;9.40;4.30;;;;;;;13.76;100.00;95123.81;1034599;28;20541;-73
2023/09/21 00:37:15;;;;;;;6.00;4.38;;;;;;;13.72;100.00;95122.06;1043055;28;20511;-74
2023/09/21 00:37:48;;;;;;;6.35;4.57;;;;;;;13.77;100.00;95121.94;1039231;28;20037;-73
2023/09/21 00:38:19;;;;;;;9.57;5.10;;;;;;;13.75;100.00;95129.34;1046891;28;20095;-73
2023/09/21 00:38:51;;;;;;;8.15;5.18;;;;;;;13.74;100.00;95123.31;1042768;28;20017;-73
2023/09/21 00:39:21;;;;;;;8.57;4.57;;;;;;;13.76;100.00;95125.66;1035172;28;20022;-74
2023/09/21 00:39:52;;;;;;;10.27;4.93;;;;;;;13.67;100.00;95112.41;1037871;28;20413;-74
2023/09/21 00:40:22;;;;;;;16.08;5.57;;;;;;;13.74;100.00;95127.81;1036626;28;20041;-76
2023/09/21 00:40:56;;;;;;;23.35;5.82;;;;;;;13.71;100.00;95121.25;1042630;28;20021;-74
2023/09/21 00:41:30;;;;;;;12.05;4.97;;;;;;;13.71;100.00;95129.19;1034553;28;20053;-75
2023/09/21 00:42:01;;;;;;;16.27;5.28;;;;;;;13.66;100.00;95119.53;1042488;28;20514;-75
2023/09/21 00:42:31;;;;;;;24.02;5.85;;;;;;;13.71;100.00;95131.03;1038288;28;20300;-73
2023/09/21 00:43:06;;;;;;;24.42;5.95;;;;;;;13.71;100.00;95131.81;1039304;28;20025;-74
2023/09/21 00:43:36;;;;;;;29.38;6.65;;;;;;;13.70;100.00;95132.13;1042575;28;20100;-75
2023/09/21 00:44:08;;;;;;;21.88;5.53;;;;;;;13.70;100.00;95125.00;1042821;28;20119;-74
2023/09/21 00:44:40;;;;;;;18.52;5.53;;;;;;;13.70;100.00;95130.25;1038353;28;20025;-73
2023/09/21 00:45:10;;;;;;;10.02;5.43;;;;;;;13.69;100.00;95128.72;1038924;28;20033;-73
2023/09/21 00:45:44;;;;;;;25.80;5.55;;;;;;;13.67;100.00;95120.31;1038998;28;20029;-74
2023/09/21 00:46:14;;;;;;;12.63;5.13;;;;;;;13.61;100.00;95121.47;1041651;28;20085;-73
2023/09/21 00:46:45;;;;;;;17.45;5.22;;;;;;;13.70;100.00;95130.25;1040539;28;20143;-74
2023/09/21 00:47:15;;;;;;;21.75;5.47;;;;;;;13.69;100.00;95126.06;1042482;28;20476;-74
2023/09/21 00:47:51;;;;;;;12.77;5.28;;;;;;;13.68;100.00;95129.75;1034564;28;20048;-74
2023/09/21 00:48:25;;;;;;;11.05;5.25;;;;;;;13.68;100.00;95127.94;1038463;28;20022;-74
2023/09/21 00:48:56;;;;;;;9.88;4.80;;;;;;;13.64;100.00;95123.53;1034310;28;20131;-75
2023/09/21 00:49:29;;;;;;;6.07;4.95;;;;;;;13.68;100.00;95127.94;1037362;28;20429;-74
2023/09/21 00:50:11;;;;;;;7.72;5.32;;;;;;;13.67;100.00;95125.56;1038577;28;20020;-73
2023/09/21 00:50:41;;;;;;;9.35;5.63;;;;;;;13.68;100.00;95127.13;1036696;28;20049;-74
2023/09/21 00:51:13;;;;;;;6.72;4.97;;;;;;;13.66;100.00;95121.38;1030368;28;20018;-74
2023/09/21 00:51:45;;;;;;;7.78;5.82;;;;;;;13.71;100.00;95126.53;1030349;28;20069;-73
2023/09/21 00:52:16;;;;;;;6.80;5.28;;;;;;;13.67;100.00;95122.94;1037037;28;20431;-74
2023/09/21 00:52:52;;;;;;;6.28;5.13;;;;;;;13.70;100.00;95125.00;1037719;28;20013;-74
2023/09/21 00:53:22;;;;;;;7.80;5.90;;;;;;;13.72;100.00;95128.13;1038674;28;20381;-75
2023/09/21 00:53:54;;;;;;;8.43;6.15;;;;;;;13.71;100.00;95126.53;1042450;28;20048;-74
2023/09/21 00:54:25;;;;;;;10.63;5.82;;;;;;;13.71;100.00;95126.53;1038394;28;20029;-73
2023/09/21 00:54:55;;;;;;;6.30;5.38;;;;;;;13.71;100.00;95120.50;1034309;28;20022;-74
2023/09/21 00:55:30;;;;;;;7.32;5.50;;;;;;;13.70;100.00;95126.84;1033001;28;20018;-74
2023/09/21 00:56:13;;;;;;;5.28;4.15;;;;;;;13.71;100.00;95126.53;1039262;28;20027;-75
2023/09/21 00:56:44;;;;;;;6.03;4.57;;;;;;;13.69;100.00;95120.78;1045107;28;20029;-74
2023/09/21 00:57:14;;;;;;;6.18;4.65;;;;;;;13.66;100.00;95119.53;1038306;28;20021;-74
2023/09/21 00:57:45;;;;;;;6.05;4.38;;;;;;;13.60;100.00;95109.38;1038500;28;20056;-73
2023/09/21 00:58:15;;;;;;;7.75;3.85;;;;;;;13.62;100.00;95112.53;1034328;28;20088;-74
2023/09/21 00:58:50;;;;;;;5.80;4.35;;;;;;;13.61;100.00;95116.22;1037951;28;20044;-75
2023/09/21 00:59:21;;;;;;;7.18;4.15;;;;;;;13.55;100.00;95105.03;1042764;28;20564;-75
2023/09/21 00:59:52;;;;;;;7.85;4.28;;;;;;;13.62;100.00;95112.53;1039050;28;20048;-74
2023/09/21 01:00:25;;;;;;;5.55;4.35;;;;;;;13.62;100.00;95108.03;1026319;28;20514;-74
2023/09/21 01:00:55;;;;;;;6.93;4.30;;;;;;;13.57;100.00;95102.06;1034631;28;20407;-74
2023/09/21 01:01:27;;;;;;;7.47;4.68;;;;;;;13.55;100.00;95105.03;1030907;28;20022;-73
2023/09/21 01:01:58;;;;;;;5.90;3.92;;;;;;;13.59;100.00;95107.84;1034862;28;20053;-75
2023/09/21 01:02:28;;;;;;;6.55;4.00;;;;;;;13.59;100.00;95113.09;1037622;28;20025;-74
2023/09/21 01:03:07;;;;;;;4.30;3.50;;;;;;;13.60;100.00;95106.75;1038435;28;20033;-75
2023/09/21 01:03:37;;;;;;;6.07;4.20;;;;;;;13.54;100.00;95100.03;1034681;28;20034;-75
2023/09/21 01:04:08;;;;;;;4.13;3.35;;;;;;;13.56;100.00;95103.94;1036114;28;20026;-74
2023/09/21 01:04:39;;;;;;;7.18;4.90;;;;;;;13.57;100.00;95104.72;1035607;28;20033;-75
2023/09/21 01:05:12;;;;;;;4.65;3.42;;;;;;;13.55;100.00;95106.88;1040357;28;20112;-74
2023/09/21 01:05:45;;;;;;;5.18;3.63;;;;;;;13.51;100.00;95101.38;1035068;28;20022;-75
2023/09/21 01:06:18;;;;;;;9.40;3.67;;;;;;;13.53;100.00;95101.88;1026333;28;20031;-74
2023/09/21 01:06:48;;;;;;;4.82;3.58;;;;;;;13.50;100.00;95099.84;1039235;28;20041;-75
2023/09/21 01:07:22;;;;;;;5.10;3.80;;;;;;;13.50;100.00;95104.34;1039030;28;20021;-74
2023/09/21 01:07:55;;;;;;;5.75;3.80;;;;;;;13.49;100.00;95102.78;1027002;28;20066;-74
2023/09/21 01:08:28;;;;;;;4.20;3.80;;;;;;;13.47;100.00;95094.38;1027980;28;20069;-74
2023/09/21 01:09:00;;;;;;;4.93;3.60;;;;;;;13.51;100.00;95100.63;1033654;28;20470;-74
2023/09/21 01:09:30;;;;;;;6.30;3.75;;;;;;;13.50;100.00;95093.78;1033985;28;20038;-74
2023/09/21 01:10:01;;;;;;;6.65;4.13;;;;;;;13.43;100.00;95089.69;1039360;28;20381;-75
2023/09/21 01:10:33;;;;;;;4.65;3.92;;;;;;;13.49;100.00;95095.66;1030376;28;20141;-74
2023/09/21 01:11:09;;;;;;;5.13;4.03;;;;;;;13.48;100.00;95096.75;1035290;28;20423;-74
2023/09/21 01:11:40;;;;;;;5.03;3.88;;;;;;;13.48;100.00;95101.19;1031172;28;20112;-74
2023/09/21 01:12:13;;;;;;;5.50;4.13;;;;;;;13.42;100.00;95087.38;1035267;28;20022;-73
2023/09/21 01:12:44;;;;;;;5.15;4.30;;;;;;;13.48;100.00;95093.28;1027268;28;20023;-74
2023/09/21 01:13:18;;;;;;;4.82;3.53;;;;;;;13.39;100.00;95082.69;1034993;28;20029;-74
2023/09/21 01:13:48;;;;;;;5.90;4.07;;;;;;;13.46;100.00;95095.47;1035064;28;20037;-73
2023/09/21 01:14:19;;;;;;;5.30;4.13;;;;;;;13.44;100.00;95093.88;1035213;28;20509;-75
2023/09/21 01:15:10;;;;;;;5.60;4.00;;;;;;;13.43;100.00;95089.69;1029538;28;20034;-75
2023/09/21 01:15:46;;;;;;;5.57;3.67;;;;;;;13.37;100.00;95085.59;1028840;28;20029;-74
2023/09/21 01:16:18;;;;;;;5.00;3.80;;;;;;;13.42;100.00;95088.16;1038179;28;20513;-74
2023/09/21 01:16:50;;;;;;;4.72;4.10;;;;;;;13.41;100.00;95091.88;1043499;28;20029;-74
2023/09/21 01:17:21;;;;;;;5.22;4.00;;;;;;;13.34;100.00;95080.94;1045312;28;20033;-74
2023/09/21 01:17:51;;;;;;;5.88;4.63;;;;;;;13.39;100.00;95090.59;1039119;28;20590;-75
2023/09/21 01:18:22;;;;;;;8.23;4.28;;;;;;;13.36;100.00;95084.06;1039775;28;20052;-75
2023/09/21 01:18:52;;;;;;;7.38;4.30;;;;;;;13.37;100.00;95082.97;1043449;28;20134;-75
2023/09/21 01:19:23;;;;;;;5.35;4.25;;;;;;;13.40;100.00;95087.66;1039393;28;20464;-75
2023/09/21 01:19:53;;;;;;;7.18;4.80;;;;;;;13.39;100.00;95088.75;1034855;28;20485;-74
2023/09/21 01:20:32;;;;;;;8.85;4.88;;;;;;;13.39;100.00;95088.75;1026789;28;20030;-75
2023/09/21 01:21:05;;;;;;;6.60;4.80;;;;;;;13.34;100.00;95083.56;1033701;28;20502;-74
2023/09/21 01:21:37;;;;;;;6.85;4.80;;;;;;;13.35;100.00;95087.78;1038946;28;20022;-76
2023/09/21 01:22:11;;;;;;;5.95;4.45;;;;;;;13.38;100.00;95091.66;1039262;28;20022;-74
2023/09/21 01:22:44;;;;;;;6.97;4.63;;;;;;;13.36;100.00;95089.34;1039208;28;20051;-75
2023/09/21 01:23:19;;;;;;;4.97;4.28;;;;;;;13.32;100.00;95083.09;1030884;28;20065;-74
2023/09/21 01:23:49;;;;;;;5.63;4.60;;;;;;;13.34;100.00;95091.47;1027099;28;20899;-76
2023/09/21 01:24:23;;;;;;;6.28;4.68;;;;;;;13.27;100.00;95083.19;1032047;28;20034;-75
2023/09/21 01:24:54;;;;;;;6.93;4.60;;;;;;;13.29;100.00;95088.97;1040544;28;20037;-75
2023/09/21 01:25:27;;;;;;;9.90;4.30;;;;;;;13.27;100.00;95091.09;1047639;28;20119;-74
2023/09/21 01:26:00;;;;;;;6.15;4.53;;;;;;;13.25;100.00;95087.22;1047392;28;20051;-74
2023/09/21 01:26:32;;;;;;;5.38;4.00;;;;;;;13.25;100.00;95093.25;1031711;28;20414;-74
2023/09/21 01:27:03;;;;;;;5.22;4.22;;;;;;;13.29;100.00;95094.22;1042315;28;20052;-74
2023/09/21 01:27:34;;;;;;;6.30;4.70;;;;;;;13.26;100.00;95094.81;1040018;28;20411;-75
2023/09/21 01:28:16;;;;;;;5.55;4.43;;;;;;;13.29;100.00;95090.81;1039461;28;20026;-74
2023/09/21 01:28:47;;;;;;;4.97;4.47;;;;;;;13.30;100.00;95093.13;1033324;28;20049;-74
2023/09/21 01:29:18;;;;;;;6.85;4.72;;;;;;;13.30;100.00;95095.78;1030186;28;20026;-74
2023/09/21 01:29:50;;;;;;;6.35;4.80;;;;;;;13.30;100.00;95092.38;1028692;28;20030;-75
2023/09/21 01:30:22;;;;;;;5.50;4.40;;;;;;;13.26;100.00;95089.53;1035815;28;20033;-74
2023/09/21 01:30:52;;;;;;;6.82;4.75;;;;;;;13.26;100.00;95084.28;1043807;28;20029;-74
2023/09/21 01:31:23;;;;;;;6.35;4.70;;;;;;;13.23;100.00;95090.09;1043383;28;20032;-74
2023/09/21 01:31:54;;;;;;;5.72;4.55;;;;;;;13.29;100.00;95091.59;1034932;28;20398;-74
2023/09/21 01:32:24;;;;;;;8.30;4.90;;;;;;;13.25;100.00;95088.00;1034911;28;20081;-74
2023/09/21 01:32:55;;;;;;;10.05;5.15;;;;;;;13.30;100.00;95087.88;1039393;28;20033;-74
2023/09/21 01:33:25;;;;;;;9.23;4.63;;;;;;;13.32;100.00;95093.63;1045026;28;20033;-74
2023/09/21 01:33:58;;;;;;;11.00;4.75;;;;;;;13.33;100.00;95089.91;1047422;28;20035;-74
2023/09/21 01:34:29;;;;;;;7.00;5.10;;;;;;;13.31;100.00;95097.34;1051091;28;20051;-74
2023/09/21 01:34:59;;;;;;;7.57;4.97;;;;;;;13.32;100.00;95095.50;1043336;28;20063;-74
2023/09/21 01:35:31;;;;;;;6.72;4.95;;;;;;;13.26;100.00;95092.19;1043298;28;20092;-73
2023/09/21 01:36:04;;;;;;;6.60;4.50;;;;;;;13.28;100.00;95086.59;1043306;28;20068;-74
2023/09/21 01:36:35;;;;;;;7.95;4.70;;;;;;;13.27;100.00;95085.06;1042606;28;20017;-74
2023/09/21 01:37:06;;;;;;;9.75;4.45;;;;;;;13.26;100.00;95094.81;1038225;28;20029;-74
2023/09/21 01:37:36;;;;;;;10.93;4.60;;;;;;;13.27;100.00;95091.09;1039967;28;20052;-74
2023/09/21 01:38:07;;;;;;;7.45;5.13;;;;;;;13.28;100.00;95102.41;1043404;28;20090;-75
2023/09/21 01:38:45;;;;;;;6.65;3.95;;;;;;;13.27;100.00;95087.69;1041473;28;20025;-74
2023/09/21 01:39:15;;;;;;;5.13;4.60;;;;;;;13.27;100.00;95090.31;1043092;28;20029;-75
2023/09/21 01:39:46;;;;;;;5.57;4.38;;;;;;;13.25;100.00;95084.59;1039117;28;20390;-76
2023/09/21 01:40:16;;;;;;;6.63;4.70;;;;;;;13.25;100.00;95082.72;1042694;28;20422;-74
2023/09/21 01:40:47;;;;;;;6.63;4.50;;;;;;;13.20;100.00;95090.69;1043245;28;20040;-74
2023/09/21 01:41:18;;;;;;;6.18;4.30;;;;;;;13.21;100.00;95092.25;1039175;28;20498;-72
2023/09/21 01:41:53;;;;;;;4.65;4.13;;;;;;;13.20;100.00;95090.69;1035615;28;20022;-74
2023/09/21 01:42:25;;;;;;;5.93;4.20;;;;;;;13.21;100.00;95079.88;1031019;28;20026;-74
2023/09/21 01:42:56;;;;;;;5.80;4.25;;;;;;;13.22;100.00;95085.91;1035922;28;20030;-76
2023/09/21 01:43:26;;;;;;;7.05;4.25;;;;;;;13.15;100.00;95072.38;1035619;28;20026;-74
2023/09/21 01:43:57;;;;;;;6.50;4.28;;;;;;;13.18;100.00;95077.81;1030998;28;20018;-75
2023/09/21 01:44:27;;;;;;;7.93;4.53;;;;;;;13.23;100.00;95086.69;1031135;28;20041;-74
2023/09/21 01:45:00;;;;;;;5.15;4.45;;;;;;;13.17;100.00;95067.56;1035031;28;20597;-75
2023/09/21 01:45:30;;;;;;;6.68;4.55;;;;;;;13.21;100.00;95081.69;1038117;28;20022;-73
2023/09/21 01:46:01;;;;;;;7.28;4.90;;;;;;;13.21;100.00;95077.22;1030803;28;20034;-75
2023/09/21 01:46:33;;;;;;;5.55;4.55;;;;;;;13.18;100.00;95077.81;1039130;28;20148;-74
2023/09/21 01:47:04;;;;;;;7.18;4.75;;;;;;;13.16;100.00;95069.41;1040024;28;20109;-74
2023/09/21 01:47:36;;;;;;;8.30;5.47;;;;;;;13.17;100.00;95075.47;1047098;28;20056;-74
2023/09/21 01:48:09;;;;;;;6.22;4.70;;;;;;;13.22;100.00;95080.66;1047606;28;20029;-74
2023/09/21 01:48:40;;;;;;;9.25;4.70;;;;;;;13.21;100.00;95076.44;1043082;28;20075;-74
2023/09/21 01:49:13;;;;;;;13.40;6.00;;;;;;;13.15;100.00;95067.09;1046547;28;20721;-74
2023/09/21 01:49:44;;;;;;;10.68;4.40;;;;;;;13.18;100.00;95075.19;1039119;28;20018;-73
2023/09/21 01:50:18;;;;;;;9.25;5.03;;;;;;;13.16;100.00;95074.69;1030309;28;20069;-74
2023/09/21 01:50:50;;;;;;;7.78;4.20;;;;;;;13.12;100.00;95072.94;1031059;28;20037;-74
2023/09/21 01:51:21;;;;;;;7.57;4.45;;;;;;;13.12;100.00;95070.31;1043350;28;20025;-74
2023/09/21 01:51:51;;;;;;;6.00;4.15;;;;;;;13.11;100.00;95074.00;1044125;28;20033;-74
2023/09/21 01:52:22;;;;;;;8.52;4.88;;;;;;;13.09;100.00;95076.94;1043204;28;20037;-75
2023/09/21 01:52:52;;;;;;;8.68;4.00;;;;;;;13.10;100.00;95077.72;1043038;28;20021;-74
2023/09/21 01:53:23;;;;;;;7.80;4.75;;;;;;;13.09;100.00;95073.53;1039220;28;20424;-75
2023/09/21 01:53:54;;;;;;;8.93;4.68;;;;;;;13.03;100.00;95072.06;1039042;28;20061;-73
2023/09/21 01:54:26;;;;;;;6.80;4.47;;;;;;;13.03;100.00;95069.44;1042949;28;20028;-74
2023/09/21 01:54:57;;;;;;;9.13;4.72;;;;;;;13.08;100.00;95078.03;1043485;28;20060;-74
2023/09/21 01:55:28;;;;;;;5.03;4.32;;;;;;;13.08;100.00;95072.00;1039803;28;20048;-75
2023/09/21 01:55:58;;;;;;;5.70;4.45;;;;;;;13.07;100.00;95070.41;1035036;28;20034;-74
2023/09/21 01:56:29;;;;;;;6.43;5.78;;;;;;;13.07;100.00;95073.03;1034662;28;20041;-75
2023/09/21 01:56:59;;;;;;;7.00;4.55;;;;;;;13.01;100.00;95059.22;1027610;28;20026;-74
2023/09/21 01:57:30;;;;;;;10.25;4.82;;;;;;;13.06;100.00;95074.13;1047274;28;20033;-75
2023/09/21 01:58:01;;;;;;;9.10;4.75;;;;;;;13.06;100.00;95059.09;1043393;28;20417;-73
2023/09/21 01:58:31;;;;;;;7.30;4.85;;;;;;;13.06;100.00;95058.31;1043265;28;20094;-74
2023/09/21 01:59:03;;;;;;;9.70;4.95;;;;;;;13.05;100.00;95062.03;1040789;28;20025;-74
2023/09/21 01:59:36;;;;;;;11.20;4.88;;;;;;;12.98;100.00;95057.94;1043267;28;20025;-74
2023/09/21 02:00:21;;;;;;;10.82;5.68;;;;;;;13.05;100.00;95064.66;1039155;28;20611;-74
2023/09/21 02:00:52;;;;;;;6.93;4.80;;;;;;;13.06;100.00;95060.94;1039309;28;20029;-75
2023/09/21 02:01:23;;;;;;;7.93;4.93;;;;;;;13.03;100.00;95061.53;1039041;28;20040;-74
2023/09/21 02:01:53;;;;;;;9.82;4.88;;;;;;;13.03;100.00;95064.94;1034857;28;20471;-73
2023/09/21 02:02:24;;;;;;;9.02;4.90;;;;;;;12.96;100.00;95051.41;1024963;28;20094;-74
2023/09/21 02:02:55;;;;;;;6.10;4.38;;;;;;;12.97;100.00;95051.09;1030893;28;20038;-74
2023/09/21 02:03:28;;;;;;;6.05;4.55;;;;;;;13.04;100.00;95055.19;1027173;28;20025;-74
2023/09/21 02:03:59;;;;;;;8.40;4.70;;;;;;;13.02;100.00;95060.00;1040188;28;20029;-74
2023/09/21 02:04:29;;;;;;;6.03;4.63;;;;;;;13.01;100.00;95046.03;1043118;28;20250;-75
2023/09/21 02:05:00;;;;;;;6.43;4.43;;;;;;;13.01;100.00;95056.56;1039177;28;20025;-73
2023/09/21 02:05:30;;;;;;;6.55;4.60;;;;;;;13.04;100.00;95057.81;1034905;28;20042;-75
2023/09/21 02:06:02;;;;;;;6.90;4.30;;;;;;;13.02;100.00;95057.34;1030829;28;20034;-73
2023/09/21 02:06:32;;;;;;;5.90;4.60;;;;;;;13.02;100.00;95057.34;1031105;28;20113;-74
2023/09/21 02:07:03;;;;;;;6.82;4.43;;;;;;;13.02;100.00;95054.72;1035224;28;20524;-74
2023/09/21 02:07:33;;;;;;;5.97;4.60;;;;;;;12.93;100.00;95050.13;1039260;28;20026;-73
2023/09/21 02:08:04;;;;;;;5.43;4.30;;;;;;;12.97;100.00;95056.34;1040256;28;20504;-74
2023/09/21 02:08:35;;;;;;;4.90;4.18;;;;;;;12.91;100.00;95052.28;1047304;28;20028;-73
2023/09/21 02:09:05;;;;;;;8.30;4.68;;;;;;;12.93;100.00;95050.13;1039091;28;20025;-75
2023/09/21 02:09:36;;;;;;;10.38;4.88;;;;;;;12.89;100.00;95046.53;1042842;28;20037;-72
2023/09/21 02:10:09;;;;;;;11.48;5.15;;;;;;;12.91;100.00;95039.13;1030991;28;20084;-75
2023/09/21 02:10:40;;;;;;;6.85;4.07;;;;;;;12.94;100.00;95051.72;1031152;28;20874;-74
2023/09/21 02:11:10;;;;;;;5.25;4.13;;;;;;;12.90;100.00;95045.44;1032496;28;20019;-74
2023/09/21 02:11:44;;;;;;;6.38;4.40;;;;;;;12.93;100.00;95055.38;1039680;28;20615;-74
2023/09/21 02:12:14;;;;;;;7.20;4.57;;;;;;;12.92;100.00;95040.69;1039942;28;20029;-75
2023/09/21 02:13:11;;;;;;;7.47;4.70;;;;;;;12.92;100.00;95053.06;1035174;28;20034;-74
2023/09/21 02:13:41;;;;;;;9.55;4.65;;;;;;;12.88;100.00;95044.19;1036056;28;20421;-75
2023/09/21 02:14:12;;;;;;;6.68;4.45;;;;;;;12.92;100.00;95059.09;1034900;28;20065;-74
2023/09/21 02:14:42;;;;;;;5.93;4.10;;;;;;;12.91;100.00;95049.66;1037327;28;20030;-75
2023/09/21 02:15:13;;;;;;;6.38;4.20;;;;;;;12.92;100.00;95042.53;1039084;28;20029;-73
2023/09/21 02:15:51;;;;;;;7.32;4.55;;;;;;;12.90;100.00;95049.94;1038253;28;20029;-74
2023/09/21 02:16:24;;;;;;;9.30;5.03;;;;;;;12.92;100.00;95053.84;1036169;28;20026;-74
2023/09/21 02:16:54;;;;;;;5.35;4.35;;;;;;;12.90;100.00;95050.72;1039063;28;20057;-74
2023/09/21 02:17:25;;;;;;;5.68;4.70;;;;;;;12.91;100.00;95051.47;1036439;28;20073;-73
2023/09/21 02:17:56;;;;;;;6.50;4.75;;;;;;;12.84;100.00;95046.63;1037574;28;20104;-74
2023/09/21 02:18:27;;;;;;;6.43;4.38;;;;;;;12.90;100.00;95055.97;1034338;28;20064;-74
2023/09/21 02:18:57;;;;;;;9.60;4.47;;;;;;;12.88;100.00;95049.47;1031116;28;20489;-73
2023/09/21 02:19:34;;;;;;;7.70;4.82;;;;;;;12.90;100.00;95055.97;1039120;28;20025;-73
2023/09/21 02:20:13;;;;;;;6.57;4.30;;;;;;;12.89;100.00;95049.16;1036655;28;20026;-74
2023/09/21 02:20:44;;;;;;;5.55;4.60;;;;;;;12.91;100.00;95062.03;1029959;28;20030;-74
2023/09/21 02:21:19;;;;;;;5.40;4.82;;;;;;;12.93;100.00;95054.63;1030863;28;20045;-74
2023/09/21 02:21:50;;;;;;;7.28;5.53;;;;;;;12.95;100.00;95058.53;1038540;28;20040;-72
2023/09/21 02:22:20;;;;;;;7.35;5.65;;;;;;;13.01;100.00;95053.13;1039332;28;20029;-74
2023/09/21 02:22:52;;;;;;;8.02;5.72;;;;;;;12.98;100.00;95051.91;1035293;28;20544;-76
2023/09/21 02:23:23;;;;;;;9.80;5.82;;;;;;;13.02;100.00;95052.09;1043253;28;20028;-74
2023/09/21 02:23:54;;;;;;;6.85;5.57;;;;;;;13.08;100.00;95056.19;1043506;28;20033;-73
2023/09/21 02:24:25;;;;;;;10.10;6.18;;;;;;;13.05;100.00;95052.28;1043526;28;20404;-74
2023/09/21 02:24:56;;;;;;;8.10;5.90;;;;;;;13.11;100.00;95061.63;1038832;28;20429;-74
2023/09/21 02:25:31;;;;;;;9.23;6.22;;;;;;;13.15;100.00;95053.94;1039835;28;20067;-75
2023/09/21 02:26:02;;;;;;;9.30;6.22;;;;;;;13.14;100.00;95052.34;1047548;28;20025;-74
2023/09/21 02:26:37;;;;;;;7.75;6.28;;;;;;;13.18;100.00;95048.06;1043312;28;20035;-74
2023/09/21 02:27:08;;;;;;;8.75;6.47;;;;;;;13.22;100.00;95049.03;1038092;28;20163;-74
2023/09/21 02:27:41;;;;;;;10.10;6.75;;;;;;;13.24;100.00;95049.53;1036088;28;20536;-74
2023/09/21 02:28:12;;;;;;;7.55;6.03;;;;;;;13.24;100.00;95051.34;1040953;28;20325;-74
2023/09/21 02:28:42;;;;;;;11.57;6.00;;;;;;;13.26;100.00;95042.13;1040040;28;20532;-74